Forside
METAR-TAF:

METAR-TAF

Lufthavne :

Lawrence J. Timmerman Airport

Milwaukee, Wisconsin, USA

Breddekreds: 43-07N, længdekreds: 088-02W, højde: 227 m

Aktuelle vejr

Denne rapport blev lavet for 28 minutter siden, kl. 09:55 UTC
Vind 10 kt fra nordnordvest med vindstød på up til 16 kt
Temperatur 6°C
Fugtighed 87%
Tryk 1013 hPa
Sigt: 16.1 km
Brudte skyer i en højde af 800 ft
Overskyet i en højde af 1300 ft
finregn

METAR: KMWC 230955Z AUTO 33010G16KT 10SM DZ BKN008 OVC013 06/04 A2990 RMK AO2 P0001

Tid: 05:23 (10:23 UTC)


TAF: fraværende

Vejrobservationer og prognoser fra mere end 4000 lufthavne (METAR og TAF).

De gule og røde prikker repræsenterer de meteorologiske stationer.

Flyt musen over at se navnet på stationen.

Så klik over at se vejr observationer og prognoser.

At skifte det kort: Klik på de grønne knapper med et sort kors for at zoome ind; på den grønne knap med en bindestreg for at zoome ud; eller på de grønne pile for tilstødende kort.


METAR-TAF: